Time;durP1;ratioP1;P1;durP2;ratioP2;P2;SDS_P1;SDS_P2;PMS_P1;PMS_P2;Temp;Humidity;BMP_temperature;BMP_pressure;BME280_temperature;BME280_humidity;BME280_pressure;Samples;Min_cycle;Max_cycle;Signal;HPM_P1;HPM_P2
2020/12/12 13:13:03;;;;;;;15.48;4.88;;;;;;;;;;5167253;27;20300;-80
2020/12/12 13:15:30;;;;;;;12.98;6.63;;;;;;;;;;5158577;27;20038;-79
2020/12/12 13:17:59;;;;;;;10.55;6.00;;;7.90;99.90;;;;;;5157447;27;20103;-82
2020/12/12 13:22:51;;;;;;;9.43;6.57;;;;;;;;;;5129882;27;20061;-81
2020/12/12 13:25:17;;;;;;;8.52;5.13;;;;;;;;;;5119593;27;20023;-80
2020/12/12 13:27:43;;;;;;;9.90;4.65;;;;;;;;;;5155360;27;20023;-81
2020/12/12 13:30:20;;;;;;;11.60;6.38;;;;;;;;;;5136231;27;20019;-81
2020/12/12 13:32:47;;;;;;;9.20;4.40;;;;;;;;;;5136648;27;20019;-79
2020/12/12 13:35:14;;;;;;;8.00;4.70;;;;;;;;;;5154793;27;20023;-79
2020/12/12 13:37:40;;;;;;;8.48;4.93;;;;;;;;;;5136165;27;20027;-80
2020/12/12 13:40:07;;;;;;;7.22;4.93;;;;;;;;;;5166045;27;20023;-80
2020/12/12 13:42:34;;;;;;;9.02;5.30;;;;;;;;;;5158582;27;20023;-79
2020/12/12 13:45:00;;;;;;;7.20;4.85;;;;;;;;;;5133330;27;20062;-80
2020/12/12 13:47:26;;;;;;;10.68;4.10;;;;;;;;;;5142387;27;20061;-82
2020/12/12 13:49:52;;;;;;;7.03;3.92;;;;;;;;;;5120702;27;20031;-82
2020/12/12 13:52:18;;;;;;;8.15;3.88;;;;;;;;;;5112429;27;20031;-81
2020/12/12 13:54:45;;;;;;;7.10;3.30;;;;;;;;;;5116548;27;20727;-81
2020/12/12 13:57:11;;;;;;;5.72;3.35;;;;;;;;;;5098134;28;20027;-81
2020/12/12 13:59:37;;;;;;;5.85;3.08;;;;;;;;;;5134278;27;20049;-81
2020/12/12 14:02:03;;;;;;;10.05;4.28;;;;;;;;;;5103452;27;20028;-81
2020/12/12 14:04:29;;;;;;;7.55;3.95;;;;;;;;;;5137676;27;20114;-82
2020/12/12 14:07:04;;;;;;;4.65;2.70;;;;;;;;;;5136421;27;20022;-82
2020/12/12 14:23:23;;;;;;;7.50;2.90;;;;;;;;;;5140825;27;20027;-80
2020/12/12 14:28:33;;;;;;;4.10;2.30;;;;;;;;;;5141305;27;20027;-81
2020/12/12 14:30:59;;;;;;;4.38;2.70;;;;;;;;;;5106867;27;20059;-80
2020/12/12 14:33:25;;;;;;;6.07;3.53;;;;;;;;;;5143591;27;20034;-80
2020/12/12 14:35:52;;;;;;;3.85;2.70;;;;;;;;;;5125610;27;20019;-81
2020/12/12 14:38:18;;;;;;;4.57;2.53;;;;;;;;;;5125866;27;20095;-80
2020/12/12 14:40:44;;;;;;;3.80;2.40;;;;;;;;;;5143640;27;20026;-81
2020/12/12 14:43:11;;;;;;;6.50;2.75;;;;;;;;;;5123846;27;20099;-80
2020/12/12 14:45:37;;;;;;;3.90;2.13;;;;;;;;;;5106939;27;20088;-81
2020/12/12 14:48:04;;;;;;;5.28;2.53;;;;;;;;;;5122821;27;20031;-80
2020/12/12 14:50:30;;;;;;;3.50;2.15;;;;;;;;;;5123199;27;20493;-81
2020/12/12 14:52:57;;;;;;;6.25;2.50;;;;;;;;;;5115179;27;20526;-81
2020/12/12 14:55:23;;;;;;;7.15;2.78;;;;;;;;;;5141022;27;20098;-81
2020/12/12 14:57:50;;;;;;;5.25;2.22;;;;;;;;;;5122675;27;20027;-80
2020/12/12 15:00:16;;;;;;;3.47;2.50;;;;;;;;;;5140688;27;20027;-81
2020/12/12 15:02:42;;;;;;;4.00;2.60;;;;;;;;;;5105505;27;20027;-81
2020/12/12 15:05:09;;;;;;;3.95;2.50;;;;;;;;;;5123172;27;20109;-81
2020/12/12 15:07:36;;;;;;;4.65;2.92;;;;;;;;;;5121810;27;20477;-81
2020/12/12 15:10:03;;;;;;;5.38;2.53;;;;;;;;;;5141719;27;20487;-81
2020/12/12 15:12:37;;;;;;;5.35;3.45;;;;;;;;;;5140745;27;20026;-78
2020/12/12 15:15:04;;;;;;;4.50;2.90;;;;;;;;;;5140331;27;20026;-81
2020/12/12 15:17:30;;;;;;;6.63;3.00;;;;;;;;;;5140211;27;20051;-80
2020/12/12 15:19:57;;;;;;;4.53;3.22;;;;;;;;;;5105481;27;20023;-79
2020/12/12 15:22:23;;;;;;;6.68;3.45;;;;;;;;;;5115998;27;20026;-82
2020/12/12 15:24:49;;;;;;;7.18;3.80;;;;;;;;;;5143049;27;20097;-81
2020/12/12 15:27:15;;;;;;;7.47;3.40;;;;;;;;;;5122727;27;20045;-81
2020/12/12 15:29:41;;;;;;;5.78;3.90;;;;;;;;;;5123586;27;20467;-82
2020/12/12 15:32:10;;;;;;;7.38;3.70;;;;;;;;;;5106540;27;20023;-81
2020/12/12 15:34:36;;;;;;;7.88;3.70;;;;;;;;;;5140536;27;20467;-80
2020/12/12 15:37:02;;;;;;;6.60;3.95;;;;;;;;;;5122667;27;20113;-80
2020/12/12 15:39:28;;;;;;;5.13;3.58;;;;;;;;;;5123822;27;20022;-79
2020/12/12 15:41:54;;;;;;;7.88;4.13;;;;;;;;;;5126503;27;20038;-78
2020/12/12 15:44:20;;;;;;;5.70;4.13;;;;;;;;;;5112721;27;20038;-79
2020/12/12 15:46:46;;;;;;;10.13;4.70;;;;;;;;;;5145565;27;20031;-79
2020/12/12 15:49:16;;;;;;;6.13;4.30;;;;;;;;;;5123626;27;20064;-79
2020/12/12 15:51:42;;;;;;;9.52;4.57;;;;;;;;;;5134366;27;20035;-81
2020/12/12 15:54:09;;;;;;;8.18;5.45;;;;;;;;;;5144044;27;20024;-80
2020/12/12 15:56:40;;;;;;;8.27;5.40;;;;;;;;;;5107964;27;20383;-79
2020/12/12 15:59:07;;;;;;;7.93;5.60;;;;;;;;;;5146493;27;20023;-80
2020/12/12 16:01:33;;;;;;;9.38;6.05;;;;;;;;;;5122492;27;20034;-80
2020/12/12 16:03:59;;;;;;;9.15;5.38;;;;;;;;;;5152584;27;20034;-78
2020/12/12 16:06:27;;;;;;;10.43;7.22;;;;;;;;;;5129072;27;20035;-80
2020/12/12 16:08:53;;;;;;;10.95;6.85;;;;;;;;;;5121884;27;20035;-80
2020/12/12 16:11:19;;;;;;;8.68;6.47;;;;;;;;;;5121070;27;20367;-80
2020/12/12 16:13:45;;;;;;;8.88;7.63;;;;;;;;;;5105091;28;20503;-81
2020/12/12 16:16:11;;;;;;;10.70;8.23;;;;;;;;;;5118770;28;20051;-80
2020/12/12 16:18:37;;;;;;;10.98;8.52;;;;;;;;;;5120204;28;20036;-79
2020/12/12 16:21:03;;;;;;;11.88;9.43;;;;;;;;;;5084589;28;20024;-80
2020/12/12 16:23:29;;;;;;;12.88;9.50;;;;;;;;;;5134752;27;20023;-80
2020/12/12 16:25:56;;;;;;;13.20;10.48;;;;;;;;;;5122966;27;20061;-81
2020/12/12 16:28:22;;;;;;;12.82;10.45;;;;;;;;;;5139896;27;20122;-80
2020/12/12 16:30:48;;;;;;;14.63;10.98;;;;;;;;;;5140310;27;20061;-79
2020/12/12 16:33:14;;;;;;;19.17;11.15;;;;;;;;;;5104353;27;20051;-78
2020/12/12 16:35:40;;;;;;;16.60;11.30;;;;;;;;;;5139960;27;20059;-80
2020/12/12 16:38:06;;;;;;;13.23;10.57;;;;;;;;;;5139997;27;20072;-79
2020/12/12 16:40:32;;;;;;;13.85;11.18;;;;;;;;;;5138869;27;20023;-78
2020/12/12 16:42:59;;;;;;;21.58;15.10;;;;;;;;;;5139546;27;20057;-79
2020/12/12 16:45:27;;;;;;;16.42;12.18;;;;;;;;;;5104915;27;20056;-81
2020/12/12 16:47:53;;;;;;;16.20;11.68;;;;;;;;;;5120789;27;20051;-80
2020/12/12 16:50:19;;;;;;;18.00;13.60;;;;;;;;;;5139886;27;20034;-80
2020/12/12 16:52:48;;;;;;;17.52;11.80;;;;;;;;;;5139825;27;20054;-79
2020/12/12 16:55:18;;;;;;;16.75;12.25;;;;;;;;;;5139516;27;20076;-79
2020/12/12 16:57:44;;;;;;;16.77;12.85;;;;;;;;;;5121128;27;20054;-80
2020/12/12 17:00:15;;;;;;;20.80;14.48;;;;;;;;;;5122143;27;20039;-81
2020/12/12 17:02:41;;;;;;;37.67;25.90;;;;;;;;;;5122693;28;20031;-80
2020/12/12 17:05:07;;;;;;;32.25;23.10;;;;;;;;;;5123506;28;20098;-80
2020/12/12 17:07:40;;;;;;;28.48;20.50;;;;;;;;;;5139656;27;20023;-80
2020/12/12 17:10:06;;;;;;;25.45;15.38;;;;;;;;;;5125283;28;20031;-80
2020/12/12 17:12:32;;;;;;;17.33;13.10;;;;;;;;;;5143040;27;20026;-80
2020/12/12 17:14:58;;;;;;;21.80;16.27;;;;;;;;;;5142275;28;20031;-80
2020/12/12 17:17:24;;;;;;;17.25;12.77;;;;;;;;;;5121246;27;20114;-81
2020/12/12 17:19:50;;;;;;;17.48;13.23;;;;;;;;;;5109270;28;20031;-80
2020/12/12 17:22:17;;;;;;;19.30;13.07;;;;;;;;;;5133172;28;20046;-81
2020/12/12 17:24:43;;;;;;;20.40;14.93;;;;;;;;;;5141038;27;20030;-79
2020/12/12 17:27:09;;;;;;;17.35;13.27;;;;;;;;;;5140388;28;20031;-80
2020/12/12 17:29:35;;;;;;;16.65;11.75;;;;;;;;;;5141890;27;20072;-79
2020/12/12 17:32:01;;;;;;;18.88;12.88;;;;;;;;;;5122627;27;20043;-79
2020/12/12 17:34:27;;;;;;;16.35;11.13;;;;;;;;;;5141735;27;20023;-79
2020/12/12 17:36:54;;;;;;;15.88;12.48;;;;;;;;;;5121384;28;20027;-79
2020/12/12 17:39:20;;;;;;;20.95;13.02;;;;;;;;;;5123221;27;20016;-80
2020/12/12 17:41:47;;;;;;;17.67;12.85;;;;;;;;;;5122563;28;20027;-77
2020/12/12 17:44:14;;;;;;;17.20;12.88;;;;;;;;;;5122644;28;20031;-80
2020/12/12 17:46:40;;;;;;;15.57;12.07;;;;;;;;;;5120889;28;20023;-79
2020/12/12 17:49:11;;;;;;;14.82;10.88;;;;;;;;;;5122969;27;20031;-79
2020/12/12 17:51:37;;;;;;;15.00;11.65;;;;;;;;;;5124126;28;20483;-80
2020/12/12 17:54:04;;;;;;;17.90;12.55;;;;;;;;;;5123141;28;20024;-80
2020/12/12 17:56:30;;;;;;;15.70;12.27;;;;;;;;;;5141875;28;20506;-79
2020/12/12 17:58:56;;;;;;;16.80;12.43;;;;;;;;;;5123519;27;20042;-77
2020/12/12 18:01:22;;;;;;;17.02;12.77;;;;;;;;;;5126694;27;20051;-78
2020/12/12 18:03:48;;;;;;;16.08;12.80;;;;;;;;;;5125001;27;20041;-79
2020/12/12 18:06:14;;;;;;;19.05;13.50;;;;;;;;;;5143519;27;20454;-79
2020/12/12 18:08:41;;;;;;;19.77;13.85;;;;;;;;;;5108380;27;20028;-79
2020/12/12 18:11:07;;;;;;;17.60;12.50;;;;;;;;;;5143183;27;20031;-79
2020/12/12 18:13:33;;;;;;;17.67;12.95;;;;;;;;;;5143652;27;20019;-79
2020/12/12 18:15:59;;;;;;;17.75;13.07;;;;;;;;;;5143728;27;20471;-79
2020/12/12 18:18:25;;;;;;;17.42;12.48;;;;;;;;;;5115353;27;20038;-79
2020/12/12 18:20:51;;;;;;;21.25;13.48;;;;;;;;;;5113696;27;20118;-80
2020/12/12 18:23:17;;;;;;;20.88;14.43;;;;;;;;;;5127390;27;20095;-78
2020/12/12 18:25:43;;;;;;;18.25;14.13;;;;;;;;;;5152042;27;20034;-80
2020/12/12 18:28:10;;;;;;;20.52;15.23;;;;;;;;;;5124060;27;20023;-80
2020/12/12 18:30:36;;;;;;;19.70;14.52;;;;;;;;;;5143109;27;20031;-80
2020/12/12 18:33:02;;;;;;;18.73;14.02;;;;;;;;;;5124662;27;20030;-80
2020/12/12 18:35:30;;;;;;;20.35;14.57;;;;;;;;;;5124183;27;20019;-80
2020/12/12 18:37:58;;;;;;;22.23;14.30;;;;;;;;;;5126146;27;20032;-80
2020/12/12 18:40:24;;;;;;;20.63;14.30;;;;;;;;;;5127794;27;20028;-80
2020/12/12 18:43:00;;;;;;;18.77;14.25;;;;;;;;;;5126618;27;20015;-79
2020/12/12 18:45:26;;;;;;;21.30;14.45;;;;;;;;;;5144953;27;20380;-80
2020/12/12 18:47:53;;;;;;;17.63;13.27;;;;;;;;;;5144342;27;20027;-80
2020/12/12 18:50:19;;;;;;;16.83;14.13;;;;;;;;;;5144941;27;20087;-80
2020/12/12 18:52:46;;;;;;;21.08;14.20;;;;;;;;;;5117223;27;20023;-79
2020/12/12 18:55:12;;;;;;;20.85;14.02;;;;;;;;;;5107829;27;20038;-79
2020/12/12 18:57:40;;;;;;;19.80;13.60;;;;;;;;;;5124859;27;20478;-78
2020/12/12 19:00:07;;;;;;;19.40;13.98;;;;;;;;;;5124577;27;20518;-79
2020/12/12 19:02:33;;;;;;;20.67;14.18;;;;;;;;;;5124383;27;20019;-80
2020/12/12 19:04:59;;;;;;;18.83;13.18;;;;;;;;;;5126379;27;20376;-81
2020/12/12 19:07:25;;;;;;;19.08;13.98;;;;;;;;;;5107707;27;20066;-82
2020/12/12 19:09:51;;;;;;;18.98;13.38;;;;;;;;;;5123042;27;20042;-82
